sensor_id;sensor_type;location;lat;lon;timestamp;pressure;altitude;pressure_sealevel;temperature
29701;BMP280;57917;51.380;-0.176;2022-07-18T00:00:21;101883.22;;;23.16
29701;BMP280;57917;51.380;-0.176;2022-07-18T00:06:08;101889.63;;;23.12
29701;BMP280;57917;51.380;-0.176;2022-07-18T00:11:57;101891.16;;;22.89
29701;BMP280;57917;51.380;-0.176;2022-07-18T00:17:48;101885.78;;;22.89
29701;BMP280;57917;51.380;-0.176;2022-07-18T00:23:35;101875.28;;;22.87
29701;BMP280;57917;51.380;-0.176;2022-07-18T00:29:22;101867.38;;;22.70
29701;BMP280;57917;51.380;-0.176;2022-07-18T00:35:14;101860.16;;;22.62
29701;BMP280;57917;51.380;-0.176;2022-07-18T00:41:06;101840.34;;;22.38
29701;BMP280;57917;51.380;-0.176;2022-07-18T00:46:55;101855.78;;;22.49
29701;BMP280;57917;51.380;-0.176;2022-07-18T00:52:43;101842.66;;;22.48
29701;BMP280;57917;51.380;-0.176;2022-07-18T00:58:30;101838.59;;;22.21
29701;BMP280;57917;51.380;-0.176;2022-07-18T01:04:21;101847.31;;;22.18
29701;BMP280;57917;51.380;-0.176;2022-07-18T01:10:09;101838.94;;;22.20
29701;BMP280;57917;51.380;-0.176;2022-07-18T01:15:58;101844.91;;;22.04
29701;BMP280;57917;51.380;-0.176;2022-07-18T01:21:44;101838.84;;;22.07
29701;BMP280;57917;51.380;-0.176;2022-07-18T01:27:33;101836.91;;;21.87
29701;BMP280;57917;51.380;-0.176;2022-07-18T01:33:21;101847.41;;;22.09
29701;BMP280;57917;51.380;-0.176;2022-07-18T01:39:09;101836.03;;;22.25
29701;BMP280;57917;51.380;-0.176;2022-07-18T01:44:58;101830.56;;;22.13
29701;BMP280;57917;51.380;-0.176;2022-07-18T01:50:45;101828.19;;;22.11
29701;BMP280;57917;51.380;-0.176;2022-07-18T01:56:32;101823.66;;;22.03
29701;BMP280;57917;51.380;-0.176;2022-07-18T02:02:23;101822.50;;;21.63
29701;BMP280;57917;51.380;-0.176;2022-07-18T02:08:10;101822.38;;;21.22
29701;BMP280;57917;51.380;-0.176;2022-07-18T02:13:57;101837.81;;;21.04
29701;BMP280;57917;51.380;-0.176;2022-07-18T02:19:46;101836.63;;;21.22
29701;BMP280;57917;51.380;-0.176;2022-07-18T02:25:33;101837.50;;;21.72
29701;BMP280;57917;51.380;-0.176;2022-07-18T02:31:22;101835.53;;;21.52
29701;BMP280;57917;51.380;-0.176;2022-07-18T02:37:13;101835.56;;;21.81
29701;BMP280;57917;51.380;-0.176;2022-07-18T02:43:00;101834.34;;;21.70
29701;BMP280;57917;51.380;-0.176;2022-07-18T02:48:50;101830.88;;;21.70
29701;BMP280;57917;51.380;-0.176;2022-07-18T02:54:40;101823.56;;;21.70
29701;BMP280;57917;51.380;-0.176;2022-07-18T03:00:28;101822.69;;;21.58
29701;BMP280;57917;51.380;-0.176;2022-07-18T03:06:17;101815.56;;;21.53
29701;BMP280;57917;51.380;-0.176;2022-07-18T03:12:07;101823.53;;;21.41
29701;BMP280;57917;51.380;-0.176;2022-07-18T03:17:55;101818.13;;;21.50
29701;BMP280;57917;51.380;-0.176;2022-07-18T03:23:42;101810.50;;;21.52
29701;BMP280;57917;51.380;-0.176;2022-07-18T03:29:31;101813.22;;;21.52
29701;BMP280;57917;51.380;-0.176;2022-07-18T03:35:21;101795.13;;;21.52
29701;BMP280;57917;51.380;-0.176;2022-07-18T03:41:10;101795.75;;;21.49
29701;BMP280;57917;51.380;-0.176;2022-07-18T03:46:57;101792.38;;;21.40
29701;BMP280;57917;51.380;-0.176;2022-07-18T03:52:46;101784.28;;;21.40
29701;BMP280;57917;51.380;-0.176;2022-07-18T03:58:33;101775.75;;;21.30
29701;BMP280;57917;51.380;-0.176;2022-07-18T04:04:23;101770.59;;;21.16
29701;BMP280;57917;51.380;-0.176;2022-07-18T04:10:11;101760.09;;;21.23
29701;BMP280;57917;51.380;-0.176;2022-07-18T04:15:58;101741.56;;;21.22
29701;BMP280;57917;51.380;-0.176;2022-07-18T04:21:48;101744.41;;;21.25
29701;BMP280;57917;51.380;-0.176;2022-07-18T04:27:38;101739.50;;;21.27
29701;BMP280;57917;51.380;-0.176;2022-07-18T04:33:27;101746.09;;;21.38
29701;BMP280;57917;51.380;-0.176;2022-07-18T04:39:14;101738.59;;;21.64
29701;BMP280;57917;51.380;-0.176;2022-07-18T04:45:05;101733.22;;;21.85
29701;BMP280;57917;51.380;-0.176;2022-07-18T04:50:52;101732.75;;;22.03
29701;BMP280;57917;51.380;-0.176;2022-07-18T04:56:39;101725.47;;;22.49
29701;BMP280;57917;51.380;-0.176;2022-07-18T05:02:32;101727.22;;;23.25
29701;BMP280;57917;51.380;-0.176;2022-07-18T05:08:22;101727.38;;;23.84
29701;BMP280;57917;51.380;-0.176;2022-07-18T05:14:13;101720.66;;;24.21
29701;BMP280;57917;51.380;-0.176;2022-07-18T05:20:00;101722.84;;;24.46
29701;BMP280;57917;51.380;-0.176;2022-07-18T05:25:50;101719.50;;;24.22
29701;BMP280;57917;51.380;-0.176;2022-07-18T05:31:40;101717.53;;;24.50
29701;BMP280;57917;51.380;-0.176;2022-07-18T05:37:27;101718.63;;;24.95
29701;BMP280;57917;51.380;-0.176;2022-07-18T05:43:16;101723.34;;;25.33
29701;BMP280;57917;51.380;-0.176;2022-07-18T05:49:06;101723.38;;;26.16
29701;BMP280;57917;51.380;-0.176;2022-07-18T05:54:54;101721.56;;;26.01
29701;BMP280;57917;51.380;-0.176;2022-07-18T06:00:42;101733.09;;;25.56
29701;BMP280;57917;51.380;-0.176;2022-07-18T06:06:55;101732.59;;;25.32
29701;BMP280;57917;51.380;-0.176;2022-07-18T06:13:14;101723.19;;;25.26
29701;BMP280;57917;51.380;-0.176;2022-07-18T06:25:33;101716.47;;;25.39
29701;BMP280;57917;51.380;-0.176;2022-07-18T06:31:20;101720.53;;;25.48
29701;BMP280;57917;51.380;-0.176;2022-07-18T06:37:10;101722.88;;;25.69
29701;BMP280;57917;51.380;-0.176;2022-07-18T06:42:59;101725.75;;;25.76
29701;BMP280;57917;51.380;-0.176;2022-07-18T06:48:52;101724.47;;;25.89
29701;BMP280;57917;51.380;-0.176;2022-07-18T06:54:42;101734.94;;;26.13
29701;BMP280;57917;51.380;-0.176;2022-07-18T07:00:30;101729.91;;;26.34
29701;BMP280;57917;51.380;-0.176;2022-07-18T07:06:18;101730.00;;;26.41
29701;BMP280;57917;51.380;-0.176;2022-07-18T07:12:09;101732.75;;;26.67
29701;BMP280;57917;51.380;-0.176;2022-07-18T07:17:59;101737.06;;;26.97
29701;BMP280;57917;51.380;-0.176;2022-07-18T07:23:49;101734.41;;;27.30
29701;BMP280;57917;51.380;-0.176;2022-07-18T07:29:38;101733.13;;;27.54
29701;BMP280;57917;51.380;-0.176;2022-07-18T07:35:27;101731.94;;;27.88
29701;BMP280;57917;51.380;-0.176;2022-07-18T07:41:18;101720.81;;;28.07
29701;BMP280;57917;51.380;-0.176;2022-07-18T07:47:15;101716.81;;;28.41
29701;BMP280;57917;51.380;-0.176;2022-07-18T07:53:23;101719.34;;;28.70
29701;BMP280;57917;51.380;-0.176;2022-07-18T07:59:16;101716.41;;;29.07
29701;BMP280;57917;51.380;-0.176;2022-07-18T08:05:09;101720.09;;;29.81
29701;BMP280;57917;51.380;-0.176;2022-07-18T08:10:57;101710.25;;;30.57
29701;BMP280;57917;51.380;-0.176;2022-07-18T08:16:45;101709.84;;;31.37
29701;BMP280;57917;51.380;-0.176;2022-07-18T08:22:32;101715.34;;;31.84
29701;BMP280;57917;51.380;-0.176;2022-07-18T08:28:20;101724.47;;;32.48
29701;BMP280;57917;51.380;-0.176;2022-07-18T08:34:07;101719.75;;;32.82
29701;BMP280;57917;51.380;-0.176;2022-07-18T08:39:58;101713.50;;;33.08
29701;BMP280;57917;51.380;-0.176;2022-07-18T08:45:53;101711.59;;;33.55
29701;BMP280;57917;51.380;-0.176;2022-07-18T08:51:44;101716.28;;;34.00
29701;BMP280;57917;51.380;-0.176;2022-07-18T08:57:31;101721.50;;;34.53
29701;BMP280;57917;51.380;-0.176;2022-07-18T09:03:25;101719.72;;;34.98
29701;BMP280;57917;51.380;-0.176;2022-07-18T09:09:35;101720.81;;;35.48
29701;BMP280;57917;51.380;-0.176;2022-07-18T09:15:25;101709.31;;;35.82
29701;BMP280;57917;51.380;-0.176;2022-07-18T09:26:59;101704.06;;;36.28
29701;BMP280;57917;51.380;-0.176;2022-07-18T09:33:29;101701.41;;;36.25
29701;BMP280;57917;51.380;-0.176;2022-07-18T09:39:21;101692.84;;;36.07
29701;BMP280;57917;51.380;-0.176;2022-07-18T09:45:15;101686.00;;;35.99
29701;BMP280;57917;51.380;-0.176;2022-07-18T09:51:09;101683.47;;;36.04
29701;BMP280;57917;51.380;-0.176;2022-07-18T09:57:09;101683.66;;;36.38
29701;BMP280;57917;51.380;-0.176;2022-07-18T10:03:16;101685.28;;;36.73
29701;BMP280;57917;51.380;-0.176;2022-07-18T10:09:15;101686.44;;;37.09
29701;BMP280;57917;51.380;-0.176;2022-07-18T10:15:04;101681.28;;;37.11
29701;BMP280;57917;51.380;-0.176;2022-07-18T10:21:07;101675.84;;;37.20
29701;BMP280;57917;51.380;-0.176;2022-07-18T10:27:20;101680.78;;;37.38
29701;BMP280;57917;51.380;-0.176;2022-07-18T10:33:46;101668.44;;;38.03
29701;BMP280;57917;51.380;-0.176;2022-07-18T10:39:42;101667.53;;;37.76
29701;BMP280;57917;51.380;-0.176;2022-07-18T10:45:44;101668.38;;;37.85
29701;BMP280;57917;51.380;-0.176;2022-07-18T10:51:34;101663.06;;;38.00
29701;BMP280;57917;51.380;-0.176;2022-07-18T10:57:41;101652.50;;;38.07
29701;BMP280;57917;51.380;-0.176;2022-07-18T11:03:29;101657.41;;;38.34
29701;BMP280;57917;51.380;-0.176;2022-07-18T11:09:43;101654.50;;;38.37
29701;BMP280;57917;51.380;-0.176;2022-07-18T11:16:10;101636.38;;;38.06
29701;BMP280;57917;51.380;-0.176;2022-07-18T11:21:59;101654.44;;;38.28
29701;BMP280;57917;51.380;-0.176;2022-07-18T11:27:48;101647.16;;;38.61
29701;BMP280;57917;51.380;-0.176;2022-07-18T11:33:41;101644.41;;;38.61
29701;BMP280;57917;51.380;-0.176;2022-07-18T11:39:33;101636.00;;;37.95
29701;BMP280;57917;51.380;-0.176;2022-07-18T11:45:22;101640.22;;;38.08
29701;BMP280;57917;51.380;-0.176;2022-07-18T11:51:19;101629.28;;;38.35
29701;BMP280;57917;51.380;-0.176;2022-07-18T11:57:07;101629.97;;;38.75
29701;BMP280;57917;51.380;-0.176;2022-07-18T12:03:24;101631.34;;;38.71
29701;BMP280;57917;51.380;-0.176;2022-07-18T12:09:25;101624.53;;;38.45
29701;BMP280;57917;51.380;-0.176;2022-07-18T12:15:14;101625.59;;;38.56
29701;BMP280;57917;51.380;-0.176;2022-07-18T12:21:08;101610.53;;;38.39
29701;BMP280;57917;51.380;-0.176;2022-07-18T12:33:08;101598.63;;;38.21
29701;BMP280;57917;51.380;-0.176;2022-07-18T12:39:00;101595.06;;;38.11
29701;BMP280;57917;51.380;-0.176;2022-07-18T12:44:47;101588.13;;;38.07
29701;BMP280;57917;51.380;-0.176;2022-07-18T12:50:35;101593.56;;;38.28
29701;BMP280;57917;51.380;-0.176;2022-07-18T12:56:22;101589.91;;;38.31
29701;BMP280;57917;51.380;-0.176;2022-07-18T13:02:15;101579.25;;;38.12
29701;BMP280;57917;51.380;-0.176;2022-07-18T13:08:04;101568.44;;;37.74
29701;BMP280;57917;51.380;-0.176;2022-07-18T13:13:57;101571.38;;;37.71
29701;BMP280;57917;51.380;-0.176;2022-07-18T13:19:46;101565.00;;;37.61
29701;BMP280;57917;51.380;-0.176;2022-07-18T13:25:34;101563.19;;;37.58
29701;BMP280;57917;51.380;-0.176;2022-07-18T13:31:21;101558.31;;;37.41
29701;BMP280;57917;51.380;-0.176;2022-07-18T13:37:08;101544.50;;;37.19
29701;BMP280;57917;51.380;-0.176;2022-07-18T13:42:58;101548.66;;;37.24
29701;BMP280;57917;51.380;-0.176;2022-07-18T13:48:46;101544.03;;;37.00
29701;BMP280;57917;51.380;-0.176;2022-07-18T13:54:34;101534.00;;;37.14
29701;BMP280;57917;51.380;-0.176;2022-07-18T14:00:24;101539.53;;;36.81
29701;BMP280;57917;51.380;-0.176;2022-07-18T14:06:11;101525.59;;;36.97
29701;BMP280;57917;51.380;-0.176;2022-07-18T14:11:58;101513.56;;;36.91
29701;BMP280;57917;51.380;-0.176;2022-07-18T14:17:47;101500.19;;;36.89
29701;BMP280;57917;51.380;-0.176;2022-07-18T14:23:38;101506.50;;;37.32
29701;BMP280;57917;51.380;-0.176;2022-07-18T14:29:25;101501.13;;;37.29
29701;BMP280;57917;51.380;-0.176;2022-07-18T14:35:15;101494.91;;;37.16
29701;BMP280;57917;51.380;-0.176;2022-07-18T14:41:48;101485.31;;;36.87
29701;BMP280;57917;51.380;-0.176;2022-07-18T14:47:24;101487.28;;;36.65
29701;BMP280;57917;51.380;-0.176;2022-07-18T14:53:12;101487.19;;;36.56
29701;BMP280;57917;51.380;-0.176;2022-07-18T14:59:09;101481.50;;;36.38
29701;BMP280;57917;51.380;-0.176;2022-07-18T15:04:56;101479.91;;;36.15
29701;BMP280;57917;51.380;-0.176;2022-07-18T15:10:43;101473.09;;;36.41
29701;BMP280;57917;51.380;-0.176;2022-07-18T15:16:34;101476.63;;;36.42
29701;BMP280;57917;51.380;-0.176;2022-07-18T15:22:23;101470.94;;;36.24
29701;BMP280;57917;51.380;-0.176;2022-07-18T15:28:31;101474.06;;;35.76
29701;BMP280;57917;51.380;-0.176;2022-07-18T15:34:46;101474.78;;;35.39
29701;BMP280;57917;51.380;-0.176;2022-07-18T15:40:37;101471.41;;;35.47
29701;BMP280;57917;51.380;-0.176;2022-07-18T15:46:27;101457.69;;;35.44
29701;BMP280;57917;51.380;-0.176;2022-07-18T15:52:15;101455.13;;;35.24
29701;BMP280;57917;51.380;-0.176;2022-07-18T15:58:02;101447.84;;;35.18
29701;BMP280;57917;51.380;-0.176;2022-07-18T16:03:56;101436.78;;;35.05
29701;BMP280;57917;51.380;-0.176;2022-07-18T16:09:56;101433.22;;;35.21
29701;BMP280;57917;51.380;-0.176;2022-07-18T16:15:58;101428.25;;;35.16
29701;BMP280;57917;51.380;-0.176;2022-07-18T16:21:50;101416.81;;;35.30
29701;BMP280;57917;51.380;-0.176;2022-07-18T16:27:42;101413.19;;;35.45
29701;BMP280;57917;51.380;-0.176;2022-07-18T16:33:36;101410.78;;;35.60
29701;BMP280;57917;51.380;-0.176;2022-07-18T16:39:43;101407.47;;;35.65
29701;BMP280;57917;51.380;-0.176;2022-07-18T16:45:37;101387.31;;;35.68
29701;BMP280;57917;51.380;-0.176;2022-07-18T16:51:29;101382.03;;;35.73
29701;BMP280;57917;51.380;-0.176;2022-07-18T16:57:21;101382.78;;;35.49
29701;BMP280;57917;51.380;-0.176;2022-07-18T17:03:13;101380.69;;;35.28
29701;BMP280;57917;51.380;-0.176;2022-07-18T17:09:05;101382.59;;;35.31
29701;BMP280;57917;51.380;-0.176;2022-07-18T17:14:57;101378.34;;;35.14
29701;BMP280;57917;51.380;-0.176;2022-07-18T17:20:51;101378.41;;;34.85
29701;BMP280;57917;51.380;-0.176;2022-07-18T17:26:41;101371.44;;;34.81
29701;BMP280;57917;51.380;-0.176;2022-07-18T17:32:32;101363.16;;;34.81
29701;BMP280;57917;51.380;-0.176;2022-07-18T17:38:20;101371.34;;;34.56
29701;BMP280;57917;51.380;-0.176;2022-07-18T18:00:12;101385.81;;;34.12
29701;BMP280;57917;51.380;-0.176;2022-07-18T18:06:02;101368.25;;;33.74
29701;BMP280;57917;51.380;-0.176;2022-07-18T18:11:55;101383.25;;;33.54
29701;BMP280;57917;51.380;-0.176;2022-07-18T18:17:44;101374.66;;;33.52
29701;BMP280;57917;51.380;-0.176;2022-07-18T18:23:32;101377.25;;;33.43
29701;BMP280;57917;51.380;-0.176;2022-07-18T18:29:19;101376.59;;;33.35
29701;BMP280;57917;51.380;-0.176;2022-07-18T18:35:07;101365.13;;;33.21
29701;BMP280;57917;51.380;-0.176;2022-07-18T18:40:57;101363.47;;;33.07
29701;BMP280;57917;51.380;-0.176;2022-07-18T18:46:48;101368.44;;;32.93
29701;BMP280;57917;51.380;-0.176;2022-07-18T18:52:36;101356.63;;;32.76
29701;BMP280;57917;51.380;-0.176;2022-07-18T18:58:29;101353.72;;;32.64
29701;BMP280;57917;51.380;-0.176;2022-07-18T19:04:17;101354.59;;;32.57
29701;BMP280;57917;51.380;-0.176;2022-07-18T19:10:06;101346.72;;;32.36
29701;BMP280;57917;51.380;-0.176;2022-07-18T19:15:53;101345.75;;;32.23
29701;BMP280;57917;51.380;-0.176;2022-07-18T19:21:40;101349.75;;;32.19
29701;BMP280;57917;51.380;-0.176;2022-07-18T19:27:27;101336.66;;;32.07
29701;BMP280;57917;51.380;-0.176;2022-07-18T19:33:15;101339.97;;;31.95
29701;BMP280;57917;51.380;-0.176;2022-07-18T19:39:04;101328.47;;;31.80
29701;BMP280;57917;51.380;-0.176;2022-07-18T19:45:01;101331.28;;;31.73
29701;BMP280;57917;51.380;-0.176;2022-07-18T19:51:03;101328.03;;;31.55
29701;BMP280;57917;51.380;-0.176;2022-07-18T19:56:56;101319.34;;;31.30
29701;BMP280;57917;51.380;-0.176;2022-07-18T20:02:46;101328.56;;;31.14
29701;BMP280;57917;51.380;-0.176;2022-07-18T20:08:39;101325.97;;;31.00
29701;BMP280;57917;51.380;-0.176;2022-07-18T20:14:30;101323.75;;;30.88
29701;BMP280;57917;51.380;-0.176;2022-07-18T20:20:30;101327.03;;;30.72
29701;BMP280;57917;51.380;-0.176;2022-07-18T20:26:20;101324.41;;;30.62
29701;BMP280;57917;51.380;-0.176;2022-07-18T20:32:50;101323.84;;;30.37
29701;BMP280;57917;51.380;-0.176;2022-07-18T20:54:25;101326.28;;;29.59
29701;BMP280;57917;51.380;-0.176;2022-07-18T21:09:21;101338.00;;;29.53
29701;BMP280;57917;51.380;-0.176;2022-07-18T21:22:01;101329.09;;;29.42
29701;BMP280;57917;51.380;-0.176;2022-07-18T21:28:30;101333.03;;;29.30
29701;BMP280;57917;51.380;-0.176;2022-07-18T21:34:20;101335.34;;;29.32
29701;BMP280;57917;51.380;-0.176;2022-07-18T21:40:09;101331.47;;;29.26
29701;BMP280;57917;51.380;-0.176;2022-07-18T21:45:56;101330.00;;;29.04
29701;BMP280;57917;51.380;-0.176;2022-07-18T21:51:46;101335.06;;;28.74
29701;BMP280;57917;51.380;-0.176;2022-07-18T21:58:06;101321.44;;;28.53
29701;BMP280;57917;51.380;-0.176;2022-07-18T22:04:13;101310.94;;;28.69
29701;BMP280;57917;51.380;-0.176;2022-07-18T22:10:03;101310.91;;;28.79
29701;BMP280;57917;51.380;-0.176;2022-07-18T22:15:50;101312.88;;;28.75
29701;BMP280;57917;51.380;-0.176;2022-07-18T22:21:37;101309.75;;;28.70
29701;BMP280;57917;51.380;-0.176;2022-07-18T22:27:28;101297.31;;;28.55
29701;BMP280;57917;51.380;-0.176;2022-07-18T22:33:19;101297.34;;;28.37
29701;BMP280;57917;51.380;-0.176;2022-07-18T22:39:07;101305.88;;;28.39
29701;BMP280;57917;51.380;-0.176;2022-07-18T22:44:54;101301.59;;;28.42
29701;BMP280;57917;51.380;-0.176;2022-07-18T22:50:47;101303.91;;;28.47
29701;BMP280;57917;51.380;-0.176;2022-07-18T22:56:38;101291.06;;;28.19
29701;BMP280;57917;51.380;-0.176;2022-07-18T23:02:26;101294.16;;;28.00
29701;BMP280;57917;51.380;-0.176;2022-07-18T23:08:21;101284.75;;;27.77
29701;BMP280;57917;51.380;-0.176;2022-07-18T23:14:18;101291.75;;;27.74
29701;BMP280;57917;51.380;-0.176;2022-07-18T23:20:10;101294.03;;;27.58
29701;BMP280;57917;51.380;-0.176;2022-07-18T23:26:05;101285.44;;;27.49
29701;BMP280;57917;51.380;-0.176;2022-07-18T23:31:56;101279.53;;;27.37
29701;BMP280;57917;51.380;-0.176;2022-07-18T23:37:49;101268.13;;;27.14
29701;BMP280;57917;51.380;-0.176;2022-07-18T23:43:37;101261.09;;;26.99
29701;BMP280;57917;51.380;-0.176;2022-07-18T23:49:29;101266.03;;;26.86
29701;BMP280;57917;51.380;-0.176;2022-07-18T23:55:19;101256.19;;;26.68
